Time;durP1;ratioP1;P1;durP2;ratioP2;P2;SDS_P1;SDS_P2;PMS_P1;PMS_P2;Temp;Humidity;BMP_temperature;BMP_pressure;BME280_temperature;BME280_humidity;BME280_pressure;Samples;Min_cycle;Max_cycle;Signal;HPM_P1;HPM_P2
2022/12/16 00:00:05;;;;;;;23.63;17.20;;;-1.60;99.90;;;;;;5035545;28;20185;-83
2022/12/16 00:02:31;;;;;;;20.37;16.27;;;-1.60;99.90;;;;;;5035532;28;20205;-82
2022/12/16 00:04:57;;;;;;;22.27;16.60;;;-1.50;99.90;;;;;;5050483;28;20267;-83
2022/12/16 00:07:23;;;;;;;22.67;16.37;;;-1.50;99.90;;;;;;5035316;28;20665;-84
2022/12/16 00:09:48;;;;;;;22.00;15.97;;;-1.50;99.90;;;;;;5032935;28;20273;-83
2022/12/16 00:12:14;;;;;;;23.60;16.73;;;-1.50;99.90;;;;;;5034107;28;20239;-84
2022/12/16 00:14:40;;;;;;;23.30;16.70;;;-1.50;99.90;;;;;;5034366;28;20288;-84
2022/12/16 00:17:05;;;;;;;21.30;16.63;;;-1.40;99.90;;;;;;5036185;28;20384;-83
2022/12/16 00:19:31;;;;;;;21.13;15.97;;;-1.40;99.90;;;;;;5034435;28;20189;-83
2022/12/16 00:21:57;;;;;;;21.83;16.83;;;-1.50;99.90;;;;;;5035241;28;20185;-83
2022/12/16 00:24:22;;;;;;;23.87;16.67;;;-1.50;99.90;;;;;;5035061;28;20617;-83
2022/12/16 00:26:48;;;;;;;22.90;16.63;;;-1.40;99.90;;;;;;5036199;28;20211;-81
2022/12/16 00:29:14;;;;;;;22.00;16.33;;;-1.40;99.90;;;;;;5034102;28;20195;-83
2022/12/16 00:31:39;;;;;;;20.60;15.93;;;-1.40;99.90;;;;;;5035082;28;20196;-84
2022/12/16 00:34:05;;;;;;;19.63;15.03;;;-1.30;99.90;;;;;;5035299;28;20211;-80
2022/12/16 00:36:31;;;;;;;21.10;15.83;;;-1.40;99.90;;;;;;5050418;28;20216;-83
2022/12/16 00:38:56;;;;;;;22.50;15.93;;;-1.40;99.90;;;;;;5034545;28;20188;-82
2022/12/16 00:41:22;;;;;;;21.23;16.33;;;-1.30;99.90;;;;;;5034715;28;20185;-83
2022/12/16 00:43:47;;;;;;;24.03;16.30;;;-1.50;98.60;;;;;;5034731;28;20617;-84
2022/12/16 00:46:13;;;;;;;21.77;16.47;;;-1.60;99.60;;;;;;5034142;28;20300;-83
2022/12/16 00:48:39;;;;;;;22.37;15.17;;;-1.50;99.90;;;;;;5050567;28;20197;-83
2022/12/16 00:51:04;;;;;;;18.83;16.50;;;-1.40;99.90;;;;;;5031886;28;20197;-84
2022/12/16 00:53:30;;;;;;;21.57;15.87;;;-1.50;98.90;;;;;;5047589;28;20250;-84
2022/12/16 00:56:08;;;;;;;23.03;15.90;;;-1.50;99.40;;;;;;5034428;28;20208;-83
2022/12/16 00:58:33;;;;;;;19.17;15.00;;;-1.40;99.70;;;;;;5033220;28;20215;-83
2022/12/16 01:01:00;;;;;;;19.63;15.73;;;-1.40;99.90;;;;;;5032372;28;20196;-83
2022/12/16 01:03:26;;;;;;;19.97;15.40;;;-1.30;99.80;;;;;;5032873;28;20208;-82
2022/12/16 01:05:51;;;;;;;23.37;15.57;;;-1.30;99.90;;;;;;5035062;28;20207;-83
2022/12/16 01:08:17;;;;;;;20.60;15.50;;;-1.20;99.30;;;;;;5034162;28;20203;-84
2022/12/16 01:10:52;;;;;;;21.60;16.00;;;-1.10;98.90;;;;;;5031722;28;20219;-85
2022/12/16 01:13:19;;;;;;;19.87;14.20;;;-1.00;98.90;;;;;;5032569;28;20258;-83
2022/12/16 01:15:44;;;;;;;19.27;15.00;;;-1.00;99.10;;;;;;5034825;28;20228;-82
2022/12/16 01:18:10;;;;;;;21.10;16.60;;;-1.00;99.30;;;;;;5034254;28;20208;-84
2022/12/16 01:20:35;;;;;;;22.67;15.30;;;-1.00;99.10;;;;;;5030886;28;20208;-84
2022/12/16 01:23:01;;;;;;;22.13;15.97;;;-1.10;99.10;;;;;;5036022;28;20211;-82
2022/12/16 01:25:27;;;;;;;19.63;15.40;;;-1.10;99.90;;;;;;5036235;28;20236;-82
2022/12/16 01:27:52;;;;;;;20.33;15.43;;;-1.00;99.90;;;;;;5035797;28;20196;-82
2022/12/16 01:30:19;;;;;;;20.53;15.13;;;-1.00;99.40;;;;;;5030561;28;20195;-83
2022/12/16 01:32:44;;;;;;;19.97;15.07;;;-1.10;99.50;;;;;;5049496;28;20203;-83
2022/12/16 01:35:10;;;;;;;22.40;15.97;;;-1.10;99.90;;;;;;5039889;28;20213;-83
2022/12/16 01:37:36;;;;;;;22.37;16.43;;;-1.10;99.90;;;;;;5039443;28;20232;-82
2022/12/16 01:40:02;;;;;;;21.83;15.23;;;-1.10;99.60;;;;;;5039449;28;20216;-82
2022/12/16 01:42:29;;;;;;;19.87;14.90;;;-1.10;99.90;;;;;;5037062;28;20181;-82
2022/12/16 01:44:55;;;;;;;17.73;14.77;;;-1.10;99.90;;;;;;5034729;28;20225;-82
2022/12/16 01:47:29;;;;;;;18.63;14.90;;;-0.90;99.90;;;;;;5036049;28;20540;-81
2022/12/16 01:50:03;;;;;;;17.90;14.10;;;-0.90;99.90;;;;;;5031178;28;20227;-83
2022/12/16 01:52:35;;;;;;;18.57;14.93;;;-0.80;99.50;;;;;;5034652;28;20254;-85
2022/12/16 01:55:26;;;;;;;19.50;15.87;;;-0.90;98.80;;;;;;5036398;28;20200;-82
2022/12/16 01:58:01;;;;;;;18.80;14.20;;;-0.90;98.80;;;;;;5032032;28;20205;-83
2022/12/16 02:00:26;;;;;;;21.20;14.80;;;-0.90;99.10;;;;;;5039432;28;20230;-80
2022/12/16 02:02:54;;;;;;;17.73;15.37;;;-0.90;97.50;;;;;;5039020;28;20201;-81
2022/12/16 02:05:20;;;;;;;19.57;14.53;;;-1.00;97.90;;;;;;5039457;28;20231;-83
2022/12/16 02:08:11;;;;;;;18.33;14.50;;;-1.00;97.90;;;;;;5056373;28;20192;-84
2022/12/16 02:10:43;;;;;;;17.80;13.23;;;-0.90;98.90;;;;;;5033647;28;20180;-82
2022/12/16 02:13:36;;;;;;;17.43;13.80;;;-0.90;99.00;;;;;;5033931;28;20593;-82
2022/12/16 02:16:10;;;;;;;17.67;13.73;;;-0.80;96.80;;;;;;5035132;28;20212;-84
2022/12/16 02:18:36;;;;;;;21.27;14.90;;;-0.80;97.10;;;;;;5032105;28;20212;-83
2022/12/16 02:21:12;;;;;;;19.93;14.43;;;-0.80;95.40;;;;;;5050491;28;20256;-83
2022/12/16 02:23:38;;;;;;;19.60;15.17;;;-0.80;96.10;;;;;;5050672;28;20407;-82
2022/12/16 02:26:03;;;;;;;19.60;15.23;;;-0.70;95.90;;;;;;5035720;28;20204;-83
2022/12/16 02:28:47;;;;;;;19.47;14.40;;;-0.80;94.00;;;;;;5034620;28;20316;-84
2022/12/16 02:31:26;;;;;;;20.13;14.07;;;-0.90;95.30;;;;;;5035551;28;20184;-83
2022/12/16 02:33:54;;;;;;;16.73;13.50;;;-1.00;95.00;;;;;;5052347;28;20547;-83
2022/12/16 02:36:43;;;;;;;17.90;13.97;;;-1.00;93.80;;;;;;5037254;28;20221;-82
2022/12/16 02:39:21;;;;;;;18.07;13.27;;;-1.10;95.30;;;;;;5037606;28;20239;-82
2022/12/16 02:41:50;;;;;;;17.47;14.10;;;-1.00;94.90;;;;;;5032738;28;20663;-83
2022/12/16 02:44:17;;;;;;;16.57;13.60;;;-1.00;93.80;;;;;;5031703;28;20192;-82
2022/12/16 02:46:52;;;;;;;15.77;13.40;;;-0.90;94.70;;;;;;5036627;28;20609;-84
2022/12/16 02:49:21;;;;;;;15.87;13.30;;;-1.00;94.30;;;;;;5036628;28;20195;-83
2022/12/16 02:51:47;;;;;;;17.90;12.53;;;-1.00;95.30;;;;;;5036792;28;20185;-83
2022/12/16 02:54:13;;;;;;;17.27;13.63;;;-1.00;93.80;;;;;;5037328;28;20199;-82
2022/12/16 02:56:49;;;;;;;16.77;13.37;;;-1.00;92.60;;;;;;5036400;28;20216;-81
2022/12/16 02:59:34;;;;;;;14.90;12.03;;;-1.00;93.90;;;;;;5033138;28;20181;-83
2022/12/16 03:02:19;;;;;;;17.90;13.33;;;-0.90;93.00;;;;;;5033274;28;20209;-84
2022/12/16 03:04:55;;;;;;;16.63;13.07;;;-0.90;94.00;;;;;;5036463;28;20212;-84
2022/12/16 03:07:25;;;;;;;13.43;11.63;;;-0.90;93.60;;;;;;5039284;28;20198;-82
2022/12/16 03:09:53;;;;;;;15.20;13.23;;;-0.90;93.60;;;;;;5038312;28;20659;-82
2022/12/16 03:12:21;;;;;;;16.57;12.73;;;-0.90;92.50;;;;;;5037420;28;20185;-84
2022/12/16 03:14:51;;;;;;;17.23;12.87;;;-1.00;92.10;;;;;;5037559;28;20480;-82
2022/12/16 03:17:20;;;;;;;19.47;12.70;;;-1.00;91.70;;;;;;5037047;28;20212;-83
2022/12/16 03:19:56;;;;;;;17.00;13.20;;;-1.10;93.90;;;;;;5037273;28;20185;-82
2022/12/16 03:22:26;;;;;;;19.23;12.83;;;-1.00;94.10;;;;;;5037620;28;20173;-85
2022/12/16 03:24:52;;;;;;;13.67;11.87;;;-0.90;91.90;;;;;;5050169;28;20239;-82
2022/12/16 03:27:25;;;;;;;16.80;13.30;;;-0.90;93.10;;;;;;5050853;28;20196;-82
2022/12/16 03:29:57;;;;;;;15.40;12.47;;;-0.90;92.30;;;;;;5046593;28;20185;-84
2022/12/16 03:32:49;;;;;;;14.77;11.67;;;-0.90;91.30;;;;;;5037760;28;20189;-83
2022/12/16 03:35:29;;;;;;;16.37;12.13;;;-0.90;90.80;;;;;;5036456;28;20232;-83
2022/12/16 03:37:57;;;;;;;17.67;12.70;;;-1.00;90.20;;;;;;5038584;28;20209;-84
2022/12/16 03:40:25;;;;;;;15.53;11.77;;;-1.00;92.50;;;;;;5037330;28;20189;-83
2022/12/16 03:42:52;;;;;;;17.47;13.00;;;-0.90;93.40;;;;;;5037902;28;20667;-83
2022/12/16 03:45:28;;;;;;;14.73;12.30;;;-0.80;91.30;;;;;;5037648;28;20201;-85
2022/12/16 03:47:57;;;;;;;18.47;12.63;;;-0.80;90.30;;;;;;5035046;28;20203;-83
2022/12/16 03:50:28;;;;;;;15.30;11.53;;;-0.90;89.90;;;;;;5035365;28;20197;-83
2022/12/16 03:52:54;;;;;;;17.80;12.67;;;-0.90;91.40;;;;;;5037822;28;20191;-84
2022/12/16 03:55:19;;;;;;;16.60;13.00;;;-0.90;91.00;;;;;;5037476;28;20503;-83
2022/12/16 03:57:45;;;;;;;16.00;12.27;;;-0.90;91.30;;;;;;5037330;28;20208;-83
2022/12/16 04:00:11;;;;;;;16.40;12.17;;;-0.80;90.90;;;;;;5037273;28;20219;-83
2022/12/16 04:02:37;;;;;;;15.07;12.17;;;-0.80;91.70;;;;;;5037791;28;20205;-83
2022/12/16 04:05:03;;;;;;;15.40;12.17;;;-0.80;91.30;;;;;;5037676;28;20312;-84
2022/12/16 04:07:29;;;;;;;17.60;12.00;;;-0.70;91.90;;;;;;5037669;28;20193;-85
2022/12/16 04:09:54;;;;;;;15.40;11.73;;;-0.70;89.80;;;;;;5037679;28;20817;-84
2022/12/16 04:26:14;;;;;;;15.50;11.90;;;-1.00;91.00;;;;;;5036212;28;20223;-83
2022/12/16 04:28:40;;;;;;;15.60;12.47;;;-1.00;89.40;;;;;;5036272;28;20638;-82
2022/12/16 04:31:06;;;;;;;15.73;12.07;;;-1.00;89.30;;;;;;5036721;28;20184;-84
